Atlantic Clover — 3FVD6 — position and weather

sailwx.info

Track history (hours):
 
Tides and Currents Weather Stations Pressure Air Temp Water Temp Dewpoint Dewpoint Depression Visibility Wind Speed Wind Dir Waves Ship Positions

Atlantic Clover

Last reported at 2014-Nov-18 11:34 UTC. Time now 2014-Nov-28 20:25 UTC.
Position N 36°02' W 005°20'.
Warning: this ship's position is 10 days out of date.

Length 180 m; draft 9.9 m.

Type: Cargo ship. MMSI: 371263000.

Date/timePositionNaut miles runAvg speedWind from/ knotsBaromVisibWave heightAir tempDewpointWater temp
2014-Nov-18 11:34N 36°02' W 005°20'  
2014-Nov-15 05:34N 36°53' E 013°37'1512.9
2014-Nov-15 04:25N 36°49' E 013°54'1112.8
2014-Nov-15 03:33N 36°46' E 014°07'1312.8
2014-Nov-15 02:33N 36°42' E 014°23'44411.8
2014-Nov-13 13:07N 36°53' E 023°36'3712.7
2014-Nov-13 10:10N 37°25' E 024°00'812.6
2014-Nov-13 09:33N 37°31' E 024°06'1612.3
2014-Nov-13 08:13N 37°44' E 024°18'1112.8
2014-Nov-13 07:23N 37°52' E 024°28'2312.4
2014-Nov-13 05:33N 38°10' E 024°44'25511.9
2014-Nov-12 08:04N 40°57' E 028°55'2 0.8
2014-Nov-12 05:33N 40°58' E 028°56'0 0.0
2014-Nov-12 04:27N 40°58' E 028°56'0 0.1
2014-Nov-12 03:31N 40°58' E 028°56'2 2.5
2014-Nov-12 02:33N 40°59' E 028°59'  
Track history (hours):
 
Tides and Currents Weather Stations Pressure Air Temp Water Temp Dewpoint Dewpoint Depression Visibility Wind Speed Wind Dir Waves Ship Positions

Atlantic Clover

Last reported at 2014-Nov-18 11:34 UTC. Time now 2014-Nov-28 20:25 UTC.
Position N 36°02' W 005°20'.
Warning: this ship's position is 10 days out of date.

Length 180 m; draft 9.9 m.

Type: Cargo ship. MMSI: 371263000.

Date/timePositionNaut miles runAvg speedWind from/ knotsBaromVisibWave heightAir tempDewpointWater temp
2014-Nov-18 11:34N 36°02' W 005°20'  
2014-Nov-15 05:34N 36°53' E 013°37'1512.9
2014-Nov-15 04:25N 36°49' E 013°54'1112.8
2014-Nov-15 03:33N 36°46' E 014°07'1312.8
2014-Nov-15 02:33N 36°42' E 014°23'44411.8
2014-Nov-13 13:07N 36°53' E 023°36'3712.7
2014-Nov-13 10:10N 37°25' E 024°00'812.6
2014-Nov-13 09:33N 37°31' E 024°06'1612.3
2014-Nov-13 08:13N 37°44' E 024°18'1112.8
2014-Nov-13 07:23N 37°52' E 024°28'2312.4
2014-Nov-13 05:33N 38°10' E 024°44'25511.9
2014-Nov-12 08:04N 40°57' E 028°55'2 0.8
2014-Nov-12 05:33N 40°58' E 028°56'0 0.0
2014-Nov-12 04:27N 40°58' E 028°56'0 0.1
2014-Nov-12 03:31N 40°58' E 028°56'2 2.5
2014-Nov-12 02:33N 40°59' E 028°59'  

Dump ship's entire track history